Time;durP1;ratioP1;P1;durP2;ratioP2;P2;SDS_P1;SDS_P2;PMS_P1;PMS_P2;Temp;Humidity;BMP_temperature;BMP_pressure;BME280_temperature;BME280_humidity;BME280_pressure;Samples;Min_cycle;Max_cycle;Signal;HPM_P1;HPM_P2
2023/02/04 00:01:37;;;;;;;15.00;9.55;;;8.70;99.90;;;;;;4975489;28;20461;-77
2023/02/04 00:04:03;;;;;;;15.52;8.52;;;8.70;99.90;;;;;;4991689;28;20421;-76
2023/02/04 00:06:30;;;;;;;17.52;9.32;;;8.70;99.90;;;;;;4975818;28;20066;-77
2023/02/04 00:08:57;;;;;;;16.35;10.75;;;8.80;99.90;;;;;;4974721;28;20093;-77
2023/02/04 00:11:23;;;;;;;12.15;8.05;;;8.80;99.90;;;;;;4976011;28;20053;-77
2023/02/04 00:13:50;;;;;;;15.75;10.25;;;8.80;99.90;;;;;;4976255;28;20122;-77
2023/02/04 00:16:17;;;;;;;13.50;9.35;;;8.80;99.90;;;;;;4990208;28;20043;-77
2023/02/04 00:18:43;;;;;;;13.07;9.45;;;8.70;99.90;;;;;;4975687;28;20066;-77
2023/02/04 00:21:10;;;;;;;15.43;8.90;;;8.80;99.90;;;;;;4974935;28;20045;-77
2023/02/04 00:23:37;;;;;;;12.68;8.43;;;8.80;99.90;;;;;;4959470;28;20369;-77
2023/02/04 00:26:04;;;;;;;13.38;8.40;;;8.80;99.90;;;;;;4975888;28;20047;-77
2023/02/04 00:28:31;;;;;;;16.13;8.20;;;8.80;99.90;;;;;;4974540;28;20046;-78
2023/02/04 00:30:58;;;;;;;16.52;7.90;;;8.80;99.90;;;;;;4976136;28;20049;-77
2023/02/04 00:33:24;;;;;;;13.13;8.63;;;8.80;99.90;;;;;;4975348;28;20043;-76
2023/02/04 00:35:51;;;;;;;11.57;7.38;;;8.80;99.90;;;;;;4973962;28;20038;-77
2023/02/04 00:38:19;;;;;;;11.73;7.30;;;8.80;99.90;;;;;;4976229;28;20034;-77
2023/02/04 00:40:46;;;;;;;15.00;8.80;;;8.90;99.90;;;;;;4994032;28;20473;-77
2023/02/04 00:43:13;;;;;;;10.75;7.80;;;8.90;99.90;;;;;;4978607;28;20065;-77
2023/02/04 00:45:39;;;;;;;12.15;7.78;;;9.00;99.90;;;;;;4979347;28;20129;-77
2023/02/04 00:48:06;;;;;;;11.95;7.63;;;9.00;99.90;;;;;;4977357;28;20405;-77
2023/02/04 00:50:38;;;;;;;14.38;7.93;;;9.00;99.90;;;;;;4962332;28;20051;-77
2023/02/04 00:53:05;;;;;;;13.50;7.57;;;9.00;99.90;;;;;;4994858;28;20050;-77
2023/02/04 00:55:31;;;;;;;16.17;8.73;;;9.00;99.90;;;;;;4961386;28;20046;-77
2023/02/04 00:57:58;;;;;;;12.30;6.80;;;9.00;99.90;;;;;;4962126;28;20461;-77
2023/02/04 01:00:25;;;;;;;14.00;7.05;;;9.00;99.90;;;;;;4962633;28;20042;-77
2023/02/04 01:02:51;;;;;;;12.70;6.90;;;9.00;99.90;;;;;;4978206;28;20126;-77
2023/02/04 01:05:18;;;;;;;14.77;6.57;;;8.90;99.90;;;;;;4979271;28;20047;-77
2023/02/04 01:07:45;;;;;;;14.18;7.60;;;8.80;99.90;;;;;;4977247;28;20057;-77
2023/02/04 01:10:12;;;;;;;12.63;7.90;;;8.60;99.90;;;;;;4974175;28;20089;-76
2023/02/04 01:12:39;;;;;;;13.25;6.95;;;8.60;99.90;;;;;;4978040;28;20043;-77
2023/02/04 01:15:05;;;;;;;15.38;6.80;;;8.60;99.90;;;;;;4977278;28;20517;-77
2023/02/04 01:17:32;;;;;;;11.55;7.22;;;8.50;99.90;;;;;;4977947;28;20466;-77
2023/02/04 01:19:59;;;;;;;14.02;7.72;;;8.50;99.90;;;;;;4977593;28;20043;-77
2023/02/04 01:22:25;;;;;;;17.13;7.93;;;8.50;99.90;;;;;;4977007;28;20145;-77
2023/02/04 01:24:52;;;;;;;13.80;6.90;;;8.50;99.90;;;;;;4977901;28;20047;-77
2023/02/04 01:27:37;;;;;;;11.85;6.63;;;8.50;99.90;;;;;;4978380;28;20186;-77
2023/02/04 01:30:04;;;;;;;20.83;8.52;;;8.50;99.90;;;;;;4961686;28;20060;-76
2023/02/04 01:32:32;;;;;;;12.40;7.13;;;8.50;99.90;;;;;;4978625;28;20039;-77
2023/02/04 01:37:47;;;;;;;10.65;6.90;;;8.50;99.90;;;;;;4577857;23;20049;-78
2023/02/04 01:40:14;;;;;;;9.25;6.18;;;8.40;99.90;;;;;;4916427;29;20059;-77
2023/02/04 01:42:40;;;;;;;9.73;6.25;;;8.40;99.90;;;;;;4900306;29;20451;-78
2023/02/04 01:45:07;;;;;;;13.93;7.40;;;8.40;99.90;;;;;;4900924;29;20084;-78
2023/02/04 01:47:35;;;;;;;15.18;7.68;;;8.30;99.90;;;;;;4900939;29;20048;-78
2023/02/04 01:50:04;;;;;;;13.27;7.63;;;8.20;99.90;;;;;;4883830;29;20136;-77
2023/02/04 01:52:31;;;;;;;9.98;6.55;;;8.20;99.90;;;;;;4901870;29;20055;-77
2023/02/04 01:54:57;;;;;;;19.33;6.43;;;8.10;99.90;;;;;;4901881;29;20049;-77
2023/02/04 01:57:24;;;;;;;11.63;6.85;;;8.10;99.90;;;;;;4899646;29;20054;-77
2023/02/04 01:59:51;;;;;;;14.38;7.65;;;8.00;99.90;;;;;;4901354;29;20419;-78
2023/02/04 02:02:19;;;;;;;13.43;8.25;;;8.10;99.90;;;;;;4900028;29;20079;-78
2023/02/04 02:04:46;;;;;;;12.93;7.25;;;8.10;99.90;;;;;;4901572;29;20045;-78
2023/02/04 02:07:12;;;;;;;12.02;6.97;;;8.10;99.90;;;;;;4901537;29;20060;-77
2023/02/04 02:09:39;;;;;;;13.02;6.90;;;8.20;99.90;;;;;;4900318;29;20054;-77
2023/02/04 02:12:06;;;;;;;14.63;7.20;;;8.30;99.90;;;;;;4901408;29;20037;-78
2023/02/04 02:14:32;;;;;;;13.00;7.00;;;8.40;99.90;;;;;;4916175;29;20048;-77
2023/02/04 02:16:59;;;;;;;14.65;7.20;;;8.40;99.90;;;;;;4900277;29;20041;-78
2023/02/04 02:19:26;;;;;;;11.02;7.05;;;8.50;99.90;;;;;;4900106;29;20104;-78
2023/02/04 02:21:52;;;;;;;10.70;6.68;;;8.50;99.90;;;;;;4900271;29;20380;-78
2023/02/04 02:24:19;;;;;;;10.18;6.50;;;8.60;99.90;;;;;;4899205;29;20371;-77
2023/02/04 02:26:45;;;;;;;13.98;6.85;;;8.70;99.90;;;;;;4901177;29;20036;-78
2023/02/04 02:29:12;;;;;;;12.55;6.68;;;8.70;99.90;;;;;;4899745;29;20049;-78
2023/02/04 02:31:39;;;;;;;15.05;7.38;;;8.70;99.90;;;;;;4901080;29;20048;-77
2023/02/04 02:34:05;;;;;;;12.38;6.90;;;8.70;99.90;;;;;;4900572;29;20123;-77
2023/02/04 02:36:32;;;;;;;12.43;7.90;;;8.80;99.90;;;;;;4899808;29;20045;-77
2023/02/04 02:38:59;;;;;;;15.15;7.13;;;8.80;99.90;;;;;;4915391;29;20063;-77
2023/02/04 02:41:25;;;;;;;11.50;7.78;;;8.80;99.90;;;;;;4884569;29;20530;-77
2023/02/04 02:43:52;;;;;;;17.45;7.47;;;8.80;99.90;;;;;;4900049;29;20383;-77
2023/02/04 02:46:19;;;;;;;10.98;6.88;;;8.90;99.90;;;;;;4900836;29;20052;-78
2023/02/04 02:48:45;;;;;;;11.55;7.05;;;8.80;99.90;;;;;;4883973;29;20044;-77
2023/02/04 02:51:12;;;;;;;11.70;6.80;;;8.90;99.90;;;;;;4898791;29;20051;-78
2023/02/04 02:53:39;;;;;;;11.02;6.75;;;8.90;99.90;;;;;;4900761;29;20068;-78
2023/02/04 02:56:06;;;;;;;11.68;8.35;;;8.90;99.90;;;;;;4914464;29;20052;-78
2023/02/04 02:58:33;;;;;;;11.73;6.82;;;8.90;99.90;;;;;;4899184;29;20087;-77
2023/02/04 03:01:00;;;;;;;10.50;6.97;;;8.90;99.90;;;;;;4899764;29;20052;-78
2023/02/04 03:03:26;;;;;;;12.27;7.72;;;8.90;99.90;;;;;;4883112;29;20063;-78
2023/02/04 03:05:53;;;;;;;12.65;7.30;;;8.90;99.90;;;;;;4915228;29;20044;-78
2023/02/04 03:08:20;;;;;;;17.98;7.20;;;9.00;99.90;;;;;;4883539;29;20044;-77
2023/02/04 03:10:46;;;;;;;10.75;7.15;;;9.00;99.90;;;;;;4914156;29;20100;-77
2023/02/04 03:13:13;;;;;;;11.23;7.22;;;8.90;99.90;;;;;;4900467;29;20222;-77
2023/02/04 03:15:39;;;;;;;13.43;7.88;;;9.00;99.90;;;;;;4899303;29;20456;-77
2023/02/04 03:18:06;;;;;;;12.60;8.00;;;9.00;99.90;;;;;;4883236;29;20152;-77
2023/02/04 03:20:34;;;;;;;12.27;7.93;;;9.00;99.90;;;;;;4899206;29;20087;-77
2023/02/04 03:23:01;;;;;;;12.82;7.88;;;9.00;99.90;;;;;;4899319;29;20360;-77
2023/02/04 03:25:28;;;;;;;13.18;8.38;;;9.00;99.90;;;;;;4900145;29;20108;-78
2023/02/04 03:27:56;;;;;;;10.85;6.63;;;9.00;99.90;;;;;;4898717;29;20077;-77
2023/02/04 03:30:22;;;;;;;10.88;7.05;;;9.10;99.90;;;;;;4898016;29;20076;-77
2023/02/04 03:32:49;;;;;;;12.55;7.38;;;9.10;99.90;;;;;;4899793;29;20041;-77
2023/02/04 03:35:16;;;;;;;15.85;8.55;;;9.10;99.90;;;;;;4899943;29;20044;-78
2023/02/04 03:37:42;;;;;;;10.30;7.53;;;9.10;99.90;;;;;;4898471;29;20052;-77
2023/02/04 03:40:09;;;;;;;10.52;7.10;;;9.10;99.90;;;;;;4899898;29;20041;-77
2023/02/04 03:42:36;;;;;;;14.80;7.80;;;9.00;99.90;;;;;;4898780;29;20056;-77
2023/02/04 03:45:02;;;;;;;14.00;9.43;;;9.00;99.90;;;;;;4899760;29;20052;-77
2023/02/04 03:47:29;;;;;;;12.60;7.45;;;9.00;99.90;;;;;;4899398;29;20054;-77
2023/02/04 03:49:56;;;;;;;12.35;7.13;;;9.00;99.90;;;;;;4898720;29;20041;-77
2023/02/04 03:52:22;;;;;;;11.25;7.60;;;9.00;99.90;;;;;;4899719;29;20510;-77
2023/02/04 03:54:49;;;;;;;11.57;7.82;;;8.90;99.90;;;;;;4899606;29;20108;-77
2023/02/04 03:57:16;;;;;;;14.77;8.40;;;9.00;99.90;;;;;;4898543;29;20048;-77
2023/02/04 03:59:42;;;;;;;11.35;8.32;;;9.00;99.90;;;;;;4899144;29;20041;-77
2023/02/04 04:02:09;;;;;;;11.43;8.23;;;9.00;99.90;;;;;;4899524;29;20471;-77
2023/02/04 04:04:35;;;;;;;15.30;8.30;;;9.00;99.90;;;;;;4913664;29;20044;-77
2023/02/04 04:07:02;;;;;;;13.05;8.45;;;9.00;99.90;;;;;;4899712;29;20055;-77
2023/02/04 04:09:28;;;;;;;10.60;7.65;;;9.00;99.90;;;;;;4897981;29;20467;-76
2023/02/04 04:11:55;;;;;;;14.13;7.68;;;9.00;99.90;;;;;;4898407;29;20044;-77
2023/02/04 04:14:22;;;;;;;13.60;7.80;;;9.00;99.90;;;;;;4899499;29;20036;-77
2023/02/04 04:16:48;;;;;;;15.13;8.70;;;9.00;99.90;;;;;;4912982;29;20471;-77
2023/02/04 04:19:15;;;;;;;10.60;7.65;;;9.00;99.90;;;;;;4899118;29;20104;-77
2023/02/04 04:21:42;;;;;;;13.38;6.90;;;9.00;99.90;;;;;;4899473;29;20065;-77
2023/02/04 04:24:08;;;;;;;11.80;8.18;;;9.00;99.90;;;;;;4898297;29;20052;-77
2023/02/04 04:26:35;;;;;;;10.10;7.18;;;9.00;99.90;;;;;;4899380;29;20062;-77
2023/02/04 04:29:01;;;;;;;12.35;7.95;;;9.00;99.90;;;;;;4896876;29;20112;-77
2023/02/04 04:31:28;;;;;;;13.18;8.68;;;9.00;99.90;;;;;;4899330;29;20115;-77
2023/02/04 04:33:55;;;;;;;13.23;8.43;;;9.00;99.90;;;;;;4914049;29;20055;-77
2023/02/04 04:36:22;;;;;;;13.80;9.05;;;9.00;99.90;;;;;;4898187;29;20048;-77
2023/02/04 04:38:48;;;;;;;12.57;8.63;;;9.00;99.90;;;;;;4898705;29;20056;-77
2023/02/04 04:41:15;;;;;;;12.20;8.68;;;9.00;99.90;;;;;;4899305;29;20048;-76
2023/02/04 04:43:41;;;;;;;13.05;8.38;;;9.00;99.90;;;;;;4898078;29;20486;-76
2023/02/04 04:46:08;;;;;;;15.48;8.75;;;9.00;99.90;;;;;;4898141;29;20063;-77
2023/02/04 04:48:34;;;;;;;13.98;9.45;;;9.00;99.90;;;;;;4898923;29;20040;-77
2023/02/04 04:51:01;;;;;;;15.32;10.30;;;8.90;99.90;;;;;;4898050;29;20037;-77
2023/02/04 04:53:28;;;;;;;15.95;9.77;;;9.00;99.90;;;;;;4913845;29;20045;-76
2023/02/04 04:55:54;;;;;;;13.93;9.80;;;9.00;99.90;;;;;;4897021;29;20068;-76
2023/02/04 04:58:21;;;;;;;14.07;9.10;;;9.00;99.90;;;;;;4898541;29;20044;-76
2023/02/04 05:00:48;;;;;;;14.13;9.98;;;9.00;99.90;;;;;;4899073;29;20475;-76
2023/02/04 05:03:14;;;;;;;16.00;10.40;;;9.00;99.90;;;;;;4897164;29;20075;-76
2023/02/04 05:05:41;;;;;;;14.60;9.27;;;9.00;99.90;;;;;;4897973;29;20070;-76
2023/02/04 05:08:12;;;;;;;14.55;9.27;;;9.00;99.90;;;;;;4897538;29;20041;-77
2023/02/04 05:10:39;;;;;;;14.00;9.90;;;9.00;99.90;;;;;;4897838;29;20048;-76
2023/02/04 05:13:06;;;;;;;14.65;9.13;;;9.00;99.90;;;;;;4898989;29;20048;-76
2023/02/04 05:15:32;;;;;;;15.48;9.88;;;9.00;99.90;;;;;;4898142;29;20040;-77
2023/02/04 05:17:59;;;;;;;13.52;10.93;;;9.00;99.90;;;;;;4913307;29;20044;-76
2023/02/04 05:20:26;;;;;;;13.85;9.05;;;9.00;99.90;;;;;;4899006;29;20111;-76
2023/02/04 05:22:53;;;;;;;12.75;9.43;;;9.00;99.90;;;;;;4897980;29;20459;-76
2023/02/04 05:25:20;;;;;;;15.77;11.05;;;9.00;99.90;;;;;;4900923;29;20051;-76
2023/02/04 05:27:46;;;;;;;15.00;9.00;;;9.00;99.90;;;;;;4916476;29;20044;-77
2023/02/04 05:30:13;;;;;;;14.88;9.35;;;9.00;99.90;;;;;;4901196;29;20045;-76
2023/02/04 05:32:39;;;;;;;11.68;9.48;;;9.00;99.90;;;;;;4902001;29;20470;-76
2023/02/04 05:35:06;;;;;;;14.07;9.05;;;9.00;99.90;;;;;;4917348;29;20486;-76
2023/02/04 05:37:33;;;;;;;11.80;8.65;;;9.00;99.90;;;;;;4900397;29;20048;-76
2023/02/04 05:39:59;;;;;;;10.48;9.23;;;9.00;99.90;;;;;;4902011;29;20056;-76
2023/02/04 05:42:26;;;;;;;11.98;8.32;;;9.00;99.90;;;;;;4900871;29;20447;-76
2023/02/04 05:44:52;;;;;;;12.85;8.63;;;9.00;99.90;;;;;;4900911;29;20052;-76
2023/02/04 05:47:19;;;;;;;13.15;7.90;;;9.00;99.90;;;;;;4916215;29;20044;-76
2023/02/04 05:49:46;;;;;;;11.10;8.40;;;9.00;99.90;;;;;;4900974;29;20069;-76
2023/02/04 05:52:13;;;;;;;10.82;7.50;;;9.00;99.90;;;;;;4901053;29;20043;-77
2023/02/04 05:54:39;;;;;;;12.55;7.90;;;9.00;99.90;;;;;;4901052;29;20037;-77
2023/02/04 05:57:06;;;;;;;13.70;8.68;;;8.90;99.90;;;;;;4900926;29;20496;-77
2023/02/04 05:59:34;;;;;;;8.88;6.85;;;8.90;99.90;;;;;;4901351;29;20081;-77
2023/02/04 06:02:00;;;;;;;10.40;7.15;;;8.90;99.90;;;;;;4901698;29;20056;-77
2023/02/04 06:04:27;;;;;;;12.48;8.90;;;8.90;99.90;;;;;;4900680;29;20045;-77
2023/02/04 06:06:53;;;;;;;14.10;7.80;;;8.90;99.90;;;;;;4901562;29;20044;-78
2023/02/04 06:09:20;;;;;;;12.65;7.22;;;8.90;99.90;;;;;;4899140;29;20383;-78
2023/02/04 06:11:47;;;;;;;11.73;7.22;;;8.90;99.90;;;;;;4901597;29;20044;-77
2023/02/04 06:14:13;;;;;;;9.30;7.57;;;8.90;99.90;;;;;;4901411;29;20052;-77
2023/02/04 06:16:40;;;;;;;10.70;7.82;;;9.00;99.90;;;;;;4915025;29;20048;-77
2023/02/04 06:19:07;;;;;;;11.13;7.75;;;8.90;99.90;;;;;;4900949;29;20052;-78
2023/02/04 06:21:33;;;;;;;11.15;7.63;;;8.90;99.90;;;;;;4901368;29;20080;-77
2023/02/04 06:24:00;;;;;;;9.32;7.05;;;8.90;99.90;;;;;;4900319;29;20075;-78
2023/02/04 06:26:26;;;;;;;10.82;6.82;;;8.90;99.90;;;;;;4901262;29;20041;-77
2023/02/04 06:28:53;;;;;;;10.98;7.35;;;8.90;99.90;;;;;;4898766;29;20412;-78
2023/02/04 06:31:20;;;;;;;9.60;6.40;;;9.00;99.90;;;;;;4901219;29;20048;-77
2023/02/04 06:33:46;;;;;;;9.75;7.28;;;8.90;99.90;;;;;;4900928;29;20044;-77
2023/02/04 06:36:13;;;;;;;9.23;6.53;;;8.90;99.90;;;;;;4899034;29;20392;-77
2023/02/04 06:38:40;;;;;;;10.77;7.50;;;9.00;99.90;;;;;;4900716;29;20087;-78
2023/02/04 06:41:07;;;;;;;9.43;6.78;;;9.00;99.90;;;;;;4901221;29;20048;-78
2023/02/04 06:43:33;;;;;;;9.93;6.75;;;8.90;99.90;;;;;;4899993;29;20355;-78
2023/02/04 06:46:00;;;;;;;9.93;7.60;;;8.90;99.90;;;;;;4900766;29;20112;-78
2023/02/04 06:48:26;;;;;;;10.60;7.18;;;8.90;99.90;;;;;;4883822;29;20372;-78
2023/02/04 06:50:56;;;;;;;11.90;7.63;;;8.90;99.90;;;;;;4899735;29;20048;-77
2023/02/04 06:53:22;;;;;;;13.93;8.35;;;8.90;99.90;;;;;;4900869;29;20059;-78
2023/02/04 06:55:49;;;;;;;9.80;6.65;;;8.90;99.90;;;;;;4898603;29;20041;-78
2023/02/04 06:58:16;;;;;;;10.07;6.70;;;8.90;99.90;;;;;;4900236;29;20123;-77
2023/02/04 07:00:42;;;;;;;11.93;7.30;;;8.90;99.90;;;;;;4900531;29;20045;-77
2023/02/04 07:03:09;;;;;;;11.50;7.55;;;8.90;99.90;;;;;;4899441;29;20048;-78
2023/02/04 07:05:36;;;;;;;9.27;6.70;;;8.90;99.90;;;;;;4915246;29;20367;-78
2023/02/04 07:08:02;;;;;;;9.60;6.35;;;8.90;99.90;;;;;;4899360;29;20464;-78
2023/02/04 07:10:29;;;;;;;9.80;6.55;;;8.90;99.90;;;;;;4882821;29;20048;-78
2023/02/04 07:12:57;;;;;;;11.50;6.90;;;8.90;99.90;;;;;;4894060;29;20471;-77
2023/02/04 07:15:23;;;;;;;9.75;7.45;;;8.90;99.90;;;;;;4900269;29;20052;-78
2023/02/04 07:17:51;;;;;;;12.57;7.43;;;8.90;99.90;;;;;;4893001;29;20037;-78
2023/02/04 07:20:18;;;;;;;7.78;6.10;;;8.90;99.90;;;;;;4916458;29;20044;-77
2023/02/04 07:22:44;;;;;;;7.72;6.75;;;8.90;99.90;;;;;;4906435;29;20060;-78
2023/02/04 07:25:13;;;;;;;8.07;6.88;;;8.90;99.90;;;;;;4897042;29;20520;-78
2023/02/04 07:27:40;;;;;;;10.70;7.55;;;8.90;99.90;;;;;;4899097;29;20044;-77
2023/02/04 07:30:07;;;;;;;10.18;7.40;;;8.80;99.90;;;;;;4913985;29;20044;-78
2023/02/04 07:32:33;;;;;;;10.07;7.75;;;8.90;99.90;;;;;;4914242;29;20036;-77
2023/02/04 07:35:00;;;;;;;12.23;7.43;;;8.80;99.90;;;;;;4899512;29;20059;-78
2023/02/04 07:37:26;;;;;;;10.05;7.68;;;8.80;99.90;;;;;;4898171;29;20044;-77
2023/02/04 07:39:53;;;;;;;11.18;8.35;;;8.80;99.90;;;;;;4889097;29;20061;-77
2023/02/04 07:42:20;;;;;;;9.13;7.93;;;8.90;99.90;;;;;;4892871;29;20044;-77
2023/02/04 07:44:53;;;;;;;8.43;7.00;;;8.90;99.90;;;;;;4898858;29;20056;-78
2023/02/04 07:47:19;;;;;;;9.95;6.82;;;8.90;99.90;;;;;;4898401;29;20049;-78
2023/02/04 07:49:46;;;;;;;10.23;8.30;;;8.90;99.90;;;;;;4898099;29;20044;-77
2023/02/04 07:52:12;;;;;;;8.27;7.15;;;8.90;99.90;;;;;;4914000;29;20049;-78
2023/02/04 07:54:39;;;;;;;10.05;6.65;;;8.90;99.90;;;;;;4914279;29;20379;-78
2023/02/04 07:57:06;;;;;;;9.00;7.38;;;8.90;99.90;;;;;;4911907;29;20036;-78
2023/02/04 07:59:32;;;;;;;9.50;7.45;;;8.90;99.90;;;;;;4899317;29;20044;-78
2023/02/04 08:02:00;;;;;;;9.27;6.60;;;8.90;99.90;;;;;;4899905;29;20044;-78
2023/02/04 08:04:27;;;;;;;10.23;7.45;;;8.90;99.90;;;;;;4898376;29;20051;-78
2023/02/04 08:06:54;;;;;;;8.73;7.68;;;8.90;99.90;;;;;;4916438;29;20513;-78
2023/02/04 08:09:20;;;;;;;9.02;6.93;;;8.90;99.90;;;;;;4898566;29;20367;-78
2023/02/04 08:11:47;;;;;;;12.98;7.93;;;8.90;99.90;;;;;;4899341;29;20050;-78
2023/02/04 08:14:13;;;;;;;10.27;7.25;;;9.00;99.90;;;;;;4899530;29;20058;-78
2023/02/04 08:16:40;;;;;;;9.38;7.20;;;9.00;99.90;;;;;;4898781;29;20059;-78
2023/02/04 08:19:07;;;;;;;10.00;8.52;;;9.00;99.90;;;;;;4899453;29;20381;-78
2023/02/04 08:21:34;;;;;;;10.60;7.90;;;9.00;99.90;;;;;;4899494;29;20467;-78
2023/02/04 08:24:00;;;;;;;14.10;8.93;;;9.00;99.90;;;;;;4898743;29;20056;-78
2023/02/04 08:26:28;;;;;;;10.30;7.00;;;9.10;99.90;;;;;;4899474;29;20051;-78
2023/02/04 08:28:55;;;;;;;9.48;7.63;;;9.00;99.90;;;;;;4892459;29;20051;-77
2023/02/04 08:31:22;;;;;;;9.75;7.65;;;9.10;99.90;;;;;;4915400;29;20058;-77
2023/02/04 08:33:50;;;;;;;8.80;6.50;;;9.10;99.90;;;;;;4897330;29;20115;-77
2023/02/04 08:36:17;;;;;;;10.63;7.47;;;9.10;99.90;;;;;;4901752;29;20383;-77
2023/02/04 08:38:44;;;;;;;9.68;7.90;;;9.10;99.90;;;;;;4908053;29;20435;-77
2023/02/04 08:41:11;;;;;;;8.43;6.45;;;9.20;99.90;;;;;;4901640;29;20116;-77
2023/02/04 08:43:37;;;;;;;10.40;7.78;;;9.20;99.90;;;;;;4903012;29;20033;-77
2023/02/04 08:46:04;;;;;;;13.27;8.27;;;9.20;99.90;;;;;;4900949;29;20053;-77
2023/02/04 08:48:31;;;;;;;8.55;7.65;;;9.20;99.90;;;;;;4898276;29;20055;-77
2023/02/04 08:50:57;;;;;;;9.70;7.43;;;9.20;99.90;;;;;;4897637;29;20044;-77
2023/02/04 08:53:24;;;;;;;8.32;7.07;;;9.20;99.90;;;;;;4898692;29;20072;-77
2023/02/04 08:55:50;;;;;;;9.45;6.82;;;9.20;99.90;;;;;;4896549;29;20440;-77
2023/02/04 08:58:17;;;;;;;9.82;6.80;;;9.20;99.90;;;;;;4881774;29;20037;-77
2023/02/04 09:00:44;;;;;;;9.07;7.45;;;9.30;99.90;;;;;;4916303;29;20056;-77
2023/02/04 09:03:10;;;;;;;10.48;7.40;;;9.30;99.90;;;;;;4900333;29;20487;-77
2023/02/04 09:05:37;;;;;;;8.88;6.85;;;9.30;99.90;;;;;;4902156;29;20044;-77
2023/02/04 09:08:04;;;;;;;9.88;6.55;;;9.30;99.90;;;;;;4901300;29;20048;-77
2023/02/04 09:10:30;;;;;;;12.30;7.68;;;9.30;99.90;;;;;;4901180;29;20060;-77
2023/02/04 09:12:57;;;;;;;9.20;6.90;;;9.30;99.90;;;;;;4885593;29;20040;-77
2023/02/04 09:15:24;;;;;;;9.75;6.82;;;9.30;99.90;;;;;;4903089;29;20368;-77
2023/02/04 09:17:52;;;;;;;9.32;6.53;;;9.40;99.90;;;;;;4901226;29;20056;-77
2023/02/04 09:20:20;;;;;;;8.93;6.85;;;9.40;99.90;;;;;;4902219;29;20053;-77
2023/02/04 09:22:49;;;;;;;8.20;6.10;;;9.40;99.90;;;;;;4885375;29;20483;-77
2023/02/04 09:25:15;;;;;;;9.07;6.67;;;9.40;99.90;;;;;;4901756;29;20067;-77
2023/02/04 09:27:42;;;;;;;10.20;6.65;;;9.40;99.90;;;;;;4900863;29;20055;-77
2023/02/04 09:30:09;;;;;;;7.95;6.43;;;9.50;99.90;;;;;;4915902;29;20108;-77
2023/02/04 09:32:35;;;;;;;8.20;6.55;;;9.50;99.90;;;;;;4901905;29;20071;-77
2023/02/04 09:35:02;;;;;;;7.80;6.15;;;9.50;99.90;;;;;;4901679;29;20050;-76
2023/02/04 09:37:30;;;;;;;7.90;6.10;;;9.50;99.90;;;;;;4900768;29;20040;-77
2023/02/04 09:39:57;;;;;;;8.00;6.20;;;9.40;99.90;;;;;;4901908;29;20471;-77
2023/02/04 09:42:23;;;;;;;9.73;6.82;;;9.40;99.90;;;;;;4901414;29;20456;-77
2023/02/04 09:44:50;;;;;;;9.00;6.07;;;9.50;99.90;;;;;;4901356;29;20053;-77
2023/02/04 09:47:17;;;;;;;7.50;5.95;;;9.50;99.90;;;;;;4901566;29;20468;-78
2023/02/04 09:49:45;;;;;;;8.40;6.20;;;9.60;99.90;;;;;;4900751;29;20044;-77
2023/02/04 09:52:12;;;;;;;8.07;6.35;;;9.70;99.90;;;;;;4901841;29;20313;-77
2023/02/04 09:54:39;;;;;;;7.45;5.82;;;9.70;99.90;;;;;;4900405;29;21080;-77
2023/02/04 09:57:06;;;;;;;8.00;6.20;;;9.70;99.90;;;;;;4897374;29;20033;-81
2023/02/04 09:59:32;;;;;;;6.65;5.00;;;9.70;99.90;;;;;;4913629;29;20060;-78
2023/02/04 10:01:59;;;;;;;7.45;5.70;;;9.80;99.90;;;;;;4885139;29;20072;-78
2023/02/04 10:04:25;;;;;;;8.23;5.88;;;9.70;99.90;;;;;;4914638;29;20053;-80
2023/02/04 10:06:52;;;;;;;6.97;5.40;;;9.80;99.90;;;;;;4901558;29;20116;-78
2023/02/04 10:09:19;;;;;;;8.10;6.22;;;9.70;99.90;;;;;;4899892;29;20067;-78
2023/02/04 10:11:45;;;;;;;7.97;5.70;;;9.80;99.90;;;;;;4901233;29;20037;-79
2023/02/04 10:14:12;;;;;;;6.85;5.57;;;9.80;99.90;;;;;;4916033;29;20059;-79
2023/02/04 10:16:40;;;;;;;6.20;5.47;;;9.80;99.90;;;;;;4906755;29;20052;-80
2023/02/04 10:19:07;;;;;;;7.10;5.90;;;9.80;99.90;;;;;;4903001;29;20112;-79
2023/02/04 10:21:38;;;;;;;7.72;5.35;;;9.80;99.90;;;;;;4901014;29;20056;-79
2023/02/04 10:24:05;;;;;;;7.28;4.68;;;9.90;99.90;;;;;;4899087;29;20052;-79
2023/02/04 10:26:31;;;;;;;8.02;5.22;;;9.90;99.90;;;;;;4900465;29;20478;-79
2023/02/04 10:28:58;;;;;;;7.53;4.28;;;9.80;99.90;;;;;;4898236;29;20059;-78
2023/02/04 10:31:25;;;;;;;6.80;4.15;;;9.80;99.90;;;;;;4884405;29;20063;-78
2023/02/04 10:33:52;;;;;;;6.03;4.60;;;9.80;99.90;;;;;;4899928;29;20064;-78
2023/02/04 10:36:18;;;;;;;4.00;3.45;;;9.90;99.90;;;;;;4883320;29;20071;-79
2023/02/04 10:38:45;;;;;;;5.22;3.75;;;9.90;99.90;;;;;;4899001;29;20058;-78
2023/02/04 10:41:11;;;;;;;6.03;4.15;;;9.90;99.90;;;;;;4899684;29;20049;-78
2023/02/04 10:43:38;;;;;;;5.93;3.78;;;9.90;99.90;;;;;;4883400;29;20056;-79
2023/02/04 10:46:05;;;;;;;5.03;3.83;;;10.00;99.90;;;;;;4900811;29;20577;-78
2023/02/04 10:48:31;;;;;;;7.40;3.78;;;10.10;99.90;;;;;;4900577;29;20108;-81
2023/02/04 10:50:58;;;;;;;6.40;3.30;;;10.00;99.90;;;;;;4892291;29;20104;-80
2023/02/04 10:56:10;;;;;;;4.57;2.60;;;10.10;99.90;;;;;;4899201;29;20060;-80
2023/02/04 10:58:37;;;;;;;3.60;2.85;;;10.10;99.90;;;;;;4915246;29;20041;-80
2023/02/04 11:01:03;;;;;;;5.53;2.70;;;10.10;99.90;;;;;;4900007;29;20100;-80
2023/02/04 11:03:30;;;;;;;3.67;2.50;;;10.10;99.90;;;;;;4899949;29;20447;-79
2023/02/04 11:05:57;;;;;;;4.07;2.60;;;10.10;99.90;;;;;;4884522;29;20049;-79
2023/02/04 11:08:24;;;;;;;4.07;2.13;;;10.10;99.90;;;;;;4899554;29;20371;-80
2023/02/04 11:10:50;;;;;;;4.10;2.05;;;10.20;99.90;;;;;;4899701;29;20044;-80
2023/02/04 11:13:17;;;;;;;3.20;2.00;;;10.10;99.90;;;;;;4893579;29;20484;-79
2023/02/04 11:15:44;;;;;;;2.72;1.83;;;10.10;99.90;;;;;;4895670;29;20126;-80
2023/02/04 11:18:12;;;;;;;2.70;1.63;;;10.10;99.90;;;;;;4886682;29;20416;-80
2023/02/04 11:20:39;;;;;;;2.88;2.15;;;10.20;99.90;;;;;;4914996;29;20053;-79
2023/02/04 11:23:06;;;;;;;3.22;2.13;;;10.20;99.90;;;;;;4897865;29;20076;-78
2023/02/04 11:25:32;;;;;;;2.95;1.90;;;10.20;99.90;;;;;;4900152;29;20129;-79
2023/02/04 11:28:00;;;;;;;4.88;1.95;;;10.30;99.90;;;;;;4899795;29;20095;-78
2023/02/04 11:30:26;;;;;;;4.28;2.15;;;10.30;99.90;;;;;;4914017;29;20045;-78
2023/02/04 11:32:53;;;;;;;3.90;2.05;;;10.30;99.90;;;;;;4900469;29;20447;-79
2023/02/04 11:35:20;;;;;;;3.22;1.80;;;10.40;99.90;;;;;;4899975;29;20055;-78
2023/02/04 11:37:47;;;;;;;2.63;1.40;;;10.50;99.90;;;;;;4898748;29;20045;-78
2023/02/04 11:40:14;;;;;;;3.17;2.15;;;10.60;99.90;;;;;;4900003;29;20049;-78
2023/02/04 11:42:41;;;;;;;2.95;1.70;;;10.80;99.90;;;;;;4898027;29;20072;-77
2023/02/04 11:45:07;;;;;;;3.28;1.50;;;10.90;99.90;;;;;;4899870;29;20048;-77
2023/02/04 11:47:34;;;;;;;3.25;1.85;;;10.90;99.90;;;;;;4899621;29;20132;-77
2023/02/04 11:50:01;;;;;;;2.92;2.30;;;11.00;99.90;;;;;;4898347;29;20460;-77
2023/02/04 11:52:27;;;;;;;4.55;3.03;;;11.00;99.90;;;;;;4899623;29;20040;-77
2023/02/04 11:54:54;;;;;;;4.32;2.35;;;11.10;99.90;;;;;;4905952;29;20040;-78
2023/02/04 11:57:21;;;;;;;7.22;2.10;;;11.00;99.90;;;;;;4905834;29;20045;-78
2023/02/04 11:59:48;;;;;;;6.45;1.80;;;11.10;99.90;;;;;;4901918;29;20049;-78
2023/02/04 12:02:15;;;;;;;6.13;1.80;;;11.30;99.90;;;;;;4898541;29;20088;-78
2023/02/04 12:04:42;;;;;;;4.97;1.55;;;11.30;99.90;;;;;;4902597;29;20128;-78
2023/02/04 12:07:09;;;;;;;3.63;1.58;;;11.20;99.90;;;;;;4898286;29;20056;-78
2023/02/04 12:09:35;;;;;;;2.28;1.63;;;11.20;99.90;;;;;;4898656;29;20048;-78
2023/02/04 12:12:02;;;;;;;3.53;2.40;;;11.10;99.90;;;;;;4904365;29;20049;-78
2023/02/04 12:14:29;;;;;;;3.22;2.15;;;11.10;99.90;;;;;;4924701;29;20041;-78
2023/02/04 12:16:55;;;;;;;4.50;1.77;;;10.90;99.90;;;;;;4903450;29;20041;-78
2023/02/04 12:19:22;;;;;;;5.85;1.90;;;10.90;99.90;;;;;;4899515;29;20045;-78
2023/02/04 12:21:49;;;;;;;5.22;2.20;;;10.80;99.90;;;;;;4899946;29;20084;-77
2023/02/04 12:24:15;;;;;;;3.95;1.83;;;10.80;99.90;;;;;;4897613;29;20543;-78
2023/02/04 12:26:42;;;;;;;3.83;2.38;;;10.80;99.90;;;;;;4899272;29;20108;-78
2023/02/04 12:29:08;;;;;;;5.38;3.10;;;10.80;99.90;;;;;;4898679;29;20084;-77
2023/02/04 12:31:35;;;;;;;5.00;2.85;;;10.70;99.90;;;;;;4899114;29;20108;-78
2023/02/04 12:34:02;;;;;;;6.65;2.67;;;10.60;99.90;;;;;;4901166;29;20048;-78
2023/02/04 12:36:29;;;;;;;7.25;2.70;;;10.60;99.90;;;;;;4902768;29;20045;-78
2023/02/04 12:38:57;;;;;;;5.45;2.80;;;10.60;99.90;;;;;;4902889;29;20052;-79
2023/02/04 12:41:24;;;;;;;4.97;2.40;;;10.50;99.90;;;;;;4903067;29;20483;-78
2023/02/04 12:43:50;;;;;;;6.40;2.90;;;10.50;99.90;;;;;;4902112;29;20049;-78
2023/02/04 12:46:17;;;;;;;5.82;2.35;;;10.50;99.90;;;;;;4904756;29;20483;-78
2023/02/04 12:48:44;;;;;;;7.32;3.00;;;10.50;99.90;;;;;;4904488;29;20056;-78
2023/02/04 12:51:11;;;;;;;5.50;2.70;;;10.50;99.90;;;;;;4902989;29;20056;-78
2023/02/04 12:53:37;;;;;;;4.75;2.25;;;10.40;99.90;;;;;;4904247;29;20394;-77